createdAt,value
2022-12-02T00:00:52.954Z,98311.66
2022-12-02T00:03:21.991Z,98313.90
2022-12-02T00:05:50.106Z,98312.63
2022-12-02T00:08:20.922Z,98313.63
2022-12-02T00:10:50.678Z,98310.77
2022-12-02T00:13:27.656Z,98316.12
2022-12-02T00:15:59.170Z,98318.83
2022-12-02T00:18:26.461Z,98318.45
2022-12-02T00:20:53.440Z,98318.06
2022-12-02T00:23:20.692Z,98321.27
2022-12-02T00:25:51.525Z,98323.98
2022-12-02T00:28:18.656Z,98320.07
2022-12-02T00:30:45.722Z,98322.54
2022-12-02T00:33:12.381Z,98322.27
2022-12-02T00:35:38.862Z,98325.30
2022-12-02T00:38:05.688Z,98326.15
2022-12-02T00:40:32.302Z,98321.25
2022-12-02T00:43:20.911Z,98321.02
2022-12-02T00:46:06.758Z,98320.39
2022-12-02T00:48:33.808Z,98318.81
2022-12-02T00:51:00.383Z,98321.87
2022-12-02T00:53:27.170Z,98323.27
2022-12-02T00:55:53.957Z,98320.40
2022-12-02T00:58:20.665Z,98320.17
2022-12-02T01:00:47.658Z,98322.03
2022-12-02T01:03:14.482Z,98319.88
2022-12-02T01:05:41.354Z,98319.67
2022-12-02T01:08:08.495Z,98318.27
2022-12-02T01:10:35.519Z,98317.56
2022-12-02T01:13:02.033Z,98318.46
2022-12-02T01:15:28.747Z,98314.15
2022-12-02T01:17:55.499Z,98320.57
2022-12-02T01:20:22.492Z,98320.27
2022-12-02T01:22:49.116Z,98316.86
2022-12-02T01:25:16.475Z,98319.46
2022-12-02T01:27:42.944Z,98318.39
2022-12-02T01:30:10.399Z,98318.36
2022-12-02T01:32:36.859Z,98319.42
2022-12-02T01:35:03.575Z,98317.54
2022-12-02T01:37:30.169Z,98315.38
2022-12-02T01:39:56.896Z,98316.50
2022-12-02T01:42:23.695Z,98314.90
2022-12-02T01:44:50.697Z,98316.09
2022-12-02T01:47:17.500Z,98313.02
2022-12-02T01:49:44.055Z,98310.78
2022-12-02T01:52:10.564Z,98310.52
2022-12-02T01:54:38.356Z,98312.36
2022-12-02T01:57:09.681Z,98314.36
2022-12-02T01:59:36.765Z,98316.76
2022-12-02T02:02:03.413Z,98317.17
2022-12-02T02:04:30.137Z,98316.16
2022-12-02T02:06:57.395Z,98318.03
2022-12-02T02:09:24.197Z,98319.60
2022-12-02T02:11:51.070Z,98316.46
2022-12-02T02:14:17.695Z,98319.40
2022-12-02T02:16:44.328Z,98321.31
2022-12-02T02:19:13.001Z,98324.52
2022-12-02T02:21:42.123Z,98324.67
2022-12-02T02:24:09.054Z,98325.59
2022-12-02T02:26:36.115Z,98322.05
2022-12-02T02:29:02.869Z,98321.13
2022-12-02T02:31:30.209Z,98323.37
2022-12-02T02:33:59.035Z,98321.49
2022-12-02T02:36:25.989Z,98319.48
2022-12-02T02:38:53.396Z,98320.32
2022-12-02T02:41:20.362Z,98322.20
2022-12-02T02:43:47.339Z,98327.77
2022-12-02T02:46:14.416Z,98323.09
2022-12-02T02:48:42.231Z,98325.58
2022-12-02T02:51:10.019Z,98326.11
2022-12-02T02:53:36.904Z,98325.17
2022-12-02T02:56:04.400Z,98324.74
2022-12-02T02:58:34.956Z,98321.02
2022-12-02T03:01:05.583Z,98321.96
2022-12-02T03:03:34.609Z,98321.72
2022-12-02T03:06:03.399Z,98317.94
2022-12-02T03:08:31.511Z,98320.14
2022-12-02T03:10:59.513Z,98317.25
2022-12-02T03:13:27.505Z,98314.77
2022-12-02T03:15:54.403Z,98312.97
2022-12-02T03:18:21.351Z,98316.02
2022-12-02T03:20:47.933Z,98316.44
2022-12-02T03:23:14.874Z,98317.55
2022-12-02T03:25:41.574Z,98315.06
2022-12-02T03:28:08.516Z,98317.67
2022-12-02T03:30:35.105Z,98314.09
2022-12-02T03:33:02.236Z,98311.25
2022-12-02T03:35:29.183Z,98313.73
2022-12-02T03:37:55.866Z,98315.71
2022-12-02T03:40:22.904Z,98313.91
2022-12-02T03:42:49.778Z,98312.41
2022-12-02T03:45:16.733Z,98314.71
2022-12-02T03:47:43.329Z,98315.84
2022-12-02T03:50:10.992Z,98315.89
2022-12-02T03:52:38.347Z,98318.20
2022-12-02T03:55:05.475Z,98323.85
2022-12-02T03:57:32.962Z,98321.45
2022-12-02T03:59:59.956Z,98323.33
2022-12-02T04:02:27.255Z,98323.36
2022-12-02T04:04:53.842Z,98323.01
2022-12-02T04:07:20.588Z,98319.86
2022-12-02T04:09:47.230Z,98320.84
2022-12-02T04:12:13.957Z,98321.46
2022-12-02T04:14:40.597Z,98322.20
2022-12-02T04:17:08.562Z,98322.05
2022-12-02T04:19:35.507Z,98321.44
2022-12-02T04:22:02.347Z,98324.96
2022-12-02T04:24:28.838Z,98324.27
2022-12-02T04:26:55.697Z,98327.11
2022-12-02T04:29:22.446Z,98330.94
2022-12-02T04:31:48.944Z,98332.70
2022-12-02T04:34:15.532Z,98330.10
2022-12-02T04:36:42.166Z,98331.42
2022-12-02T04:39:09.052Z,98336.28
2022-12-02T04:41:35.565Z,98336.19
2022-12-02T04:44:03.119Z,98336.88
2022-12-02T04:46:29.679Z,98338.04
2022-12-02T04:48:56.305Z,98336.77
2022-12-02T04:51:22.801Z,98337.30
2022-12-02T04:53:49.543Z,98338.64
2022-12-02T04:56:16.159Z,98340.86
2022-12-02T04:58:42.748Z,98339.89
2022-12-02T05:01:09.832Z,98342.55
2022-12-02T05:03:36.401Z,98342.57
2022-12-02T05:06:03.095Z,98341.39
2022-12-02T05:08:29.736Z,98336.89
2022-12-02T05:10:56.312Z,98338.56
2022-12-02T05:13:22.950Z,98337.46
2022-12-02T05:15:49.525Z,98334.08
2022-12-02T05:18:16.833Z,98331.77
2022-12-02T05:20:43.325Z,98331.30
2022-12-02T05:23:10.042Z,98332.86
2022-12-02T05:25:36.643Z,98331.88
2022-12-02T05:28:03.585Z,98332.46
2022-12-02T05:30:30.324Z,98332.94
2022-12-02T05:32:56.827Z,98333.57
2022-12-02T05:35:23.514Z,98337.38
2022-12-02T05:37:50.242Z,98341.29
2022-12-02T05:40:16.946Z,98338.94
2022-12-02T05:42:43.528Z,98341.39
2022-12-02T05:45:14.141Z,98345.79
2022-12-02T05:47:40.980Z,98344.20
2022-12-02T05:50:12.842Z,98342.15
2022-12-02T05:52:39.491Z,98342.10
2022-12-02T05:55:17.399Z,98343.52
2022-12-02T05:57:44.777Z,98349.19
2022-12-02T06:00:17.048Z,98352.42
2022-12-02T06:02:45.761Z,98351.10
2022-12-02T06:05:15.486Z,98350.89
2022-12-02T06:07:42.385Z,98349.21
2022-12-02T06:10:15.938Z,98353.63
2022-12-02T06:12:43.524Z,98355.38
2022-12-02T06:15:13.680Z,98361.95
2022-12-02T06:17:40.965Z,98363.09
2022-12-02T06:20:13.139Z,98366.98
2022-12-02T06:22:39.772Z,98369.44
2022-12-02T06:25:18.232Z,98366.52
2022-12-02T06:27:44.750Z,98368.23
2022-12-02T06:30:13.799Z,98369.33
2022-12-02T06:32:42.246Z,98371.21
2022-12-02T06:35:38.192Z,98371.83
2022-12-02T06:38:12.305Z,98372.30
2022-12-02T06:40:39.004Z,98378.73
2022-12-02T06:43:15.181Z,98379.45
2022-12-02T06:45:43.146Z,98381.90
2022-12-02T06:48:24.832Z,98382.89
2022-12-02T06:50:51.831Z,98383.55
2022-12-02T06:53:26.142Z,98384.17
2022-12-02T06:55:57.334Z,98388.89
2022-12-02T06:58:25.013Z,98390.16
2022-12-02T07:00:51.685Z,98388.99
2022-12-02T07:03:22.725Z,98391.52
2022-12-02T07:05:52.174Z,98393.04
2022-12-02T07:08:18.864Z,98396.55
2022-12-02T07:10:45.339Z,98394.90
2022-12-02T07:13:15.892Z,98395.30
2022-12-02T07:15:42.465Z,98394.08
2022-12-02T07:18:08.997Z,98394.09
2022-12-02T07:20:37.270Z,98393.57
2022-12-02T07:23:09.730Z,98395.98
2022-12-02T07:25:44.376Z,98395.67
2022-12-02T07:28:29.757Z,98397.73
2022-12-02T07:30:58.061Z,98393.44
2022-12-02T07:33:24.735Z,98396.52
2022-12-02T07:35:51.442Z,98399.51
2022-12-02T07:38:31.751Z,98401.89
2022-12-02T07:41:04.553Z,98403.45
2022-12-02T07:43:31.484Z,98405.69
2022-12-02T07:45:58.864Z,98405.52
2022-12-02T07:48:25.529Z,98398.88
2022-12-02T07:50:52.254Z,98401.69
2022-12-02T07:53:19.208Z,98401.70
2022-12-02T07:55:45.939Z,98404.08
2022-12-02T07:58:12.670Z,98403.90
2022-12-02T08:00:39.146Z,98403.42
2022-12-02T08:03:05.657Z,98399.15
2022-12-02T08:05:32.305Z,98392.71
2022-12-02T08:07:59.272Z,98396.35
2022-12-02T08:10:26.126Z,98394.71
2022-12-02T08:12:52.628Z,98393.25
2022-12-02T08:15:19.145Z,98394.77
2022-12-02T08:17:45.665Z,98397.64
2022-12-02T08:20:12.928Z,98400.71
2022-12-02T08:22:39.616Z,98395.72
2022-12-02T08:25:06.526Z,98395.00
2022-12-02T08:27:33.136Z,98400.18
2022-12-02T08:29:59.718Z,98395.52
2022-12-02T08:32:26.338Z,98390.07
2022-12-02T08:34:53.588Z,98385.70
2022-12-02T08:37:20.869Z,98383.54
2022-12-02T08:39:47.429Z,98382.11
2022-12-02T08:42:14.369Z,98382.98
2022-12-02T08:44:40.842Z,98380.43
2022-12-02T08:47:07.415Z,98381.86
2022-12-02T08:49:34.090Z,98384.48
2022-12-02T08:52:00.626Z,98383.05
2022-12-02T08:54:27.530Z,98380.27
2022-12-02T08:56:56.051Z,98379.65
2022-12-02T08:59:22.742Z,98378.98
2022-12-02T09:01:49.330Z,98378.76
2022-12-02T09:04:15.838Z,98381.14
2022-12-02T09:06:42.434Z,98378.50
2022-12-02T09:09:10.222Z,98378.79
2022-12-02T09:11:36.957Z,98374.55
2022-12-02T09:14:03.804Z,98379.09
2022-12-02T09:16:30.294Z,98374.10
2022-12-02T09:18:57.737Z,98375.02
2022-12-02T09:21:24.368Z,98374.66
2022-12-02T09:23:51.115Z,98375.63
2022-12-02T09:26:18.083Z,98378.45
2022-12-02T09:28:45.104Z,98378.67
2022-12-02T09:31:11.637Z,98375.81
2022-12-02T09:33:38.848Z,98371.78
2022-12-02T09:36:05.538Z,98372.26
2022-12-02T09:38:32.524Z,98375.04
2022-12-02T09:40:59.877Z,98376.35
2022-12-02T09:43:30.239Z,98373.86
2022-12-02T09:45:57.453Z,98378.20
2022-12-02T09:48:24.893Z,98381.38
2022-12-02T09:50:51.955Z,98378.77
2022-12-02T09:53:20.129Z,98381.17
2022-12-02T09:55:46.641Z,98377.23
2022-12-02T09:58:17.803Z,98375.98
2022-12-02T10:00:44.944Z,98378.54
2022-12-02T10:03:18.686Z,98375.42
2022-12-02T10:05:46.219Z,98373.17
2022-12-02T10:08:17.007Z,98374.27
2022-12-02T10:10:44.613Z,98375.66
2022-12-02T10:13:18.869Z,98376.00
2022-12-02T10:15:46.026Z,98380.77
2022-12-02T10:18:17.816Z,98378.80
2022-12-02T10:20:44.530Z,98379.27
2022-12-02T10:23:16.423Z,98382.17
2022-12-02T10:25:53.923Z,98381.59
2022-12-02T10:28:28.253Z,98377.73
2022-12-02T10:31:04.340Z,98374.91
2022-12-02T10:33:35.277Z,98374.62
2022-12-02T10:36:01.951Z,98372.44
2022-12-02T10:38:34.457Z,98368.27
2022-12-02T10:41:09.891Z,98371.27
2022-12-02T10:43:36.533Z,98371.80
2022-12-02T10:46:03.355Z,98372.05
2022-12-02T10:48:30.096Z,98370.71
2022-12-02T10:50:56.575Z,98370.77
2022-12-02T10:53:25.973Z,98372.16
2022-12-02T10:55:52.784Z,98371.29
2022-12-02T10:58:26.146Z,98374.95
2022-12-02T11:00:52.915Z,98378.77
2022-12-02T11:03:19.918Z,98380.51
2022-12-02T11:05:46.467Z,98380.15
2022-12-02T11:08:19.228Z,98378.02
2022-12-02T11:10:47.519Z,98375.30
2022-12-02T11:13:14.007Z,98377.16
2022-12-02T11:15:42.621Z,98376.67
2022-12-02T11:18:32.351Z,98373.99
2022-12-02T11:21:02.067Z,98373.61
2022-12-02T11:23:29.517Z,98367.99
2022-12-02T11:25:57.875Z,98364.37
2022-12-02T11:28:27.130Z,98360.86
2022-12-02T11:31:13.478Z,98362.36
2022-12-02T11:33:43.097Z,98361.32
2022-12-02T11:36:14.676Z,98359.55
2022-12-02T11:38:46.104Z,98358.95
2022-12-02T11:41:13.217Z,98359.11
2022-12-02T11:43:50.943Z,98363.55
2022-12-02T11:46:19.470Z,98361.75
2022-12-02T11:48:47.563Z,98359.92
2022-12-02T11:51:29.554Z,98358.18
2022-12-02T11:53:56.319Z,98357.10
2022-12-02T11:56:26.508Z,98360.85
2022-12-02T11:58:53.254Z,98356.86
2022-12-02T12:01:20.338Z,98352.34
2022-12-02T12:03:49.068Z,98353.31
2022-12-02T12:06:17.507Z,98357.13
2022-12-02T12:08:47.659Z,98355.17
2022-12-02T12:11:23.886Z,98354.89
2022-12-02T12:14:04.370Z,98352.50
2022-12-02T12:16:32.548Z,98356.05
2022-12-02T12:19:23.526Z,98356.75
2022-12-02T12:21:53.467Z,98353.45
2022-12-02T12:24:20.819Z,98355.02
2022-12-02T12:26:48.664Z,98352.75
2022-12-02T12:29:15.764Z,98357.01
2022-12-02T12:31:42.997Z,98356.79
2022-12-02T12:34:10.853Z,98359.30
2022-12-02T12:36:38.311Z,98359.41
2022-12-02T12:39:06.279Z,98364.23
2022-12-02T12:42:02.806Z,98365.33
2022-12-02T12:44:19.492Z,98367.22
2022-12-02T12:46:48.256Z,98367.20
2022-12-02T12:49:14.782Z,98368.18
2022-12-02T12:51:41.288Z,98370.32
2022-12-02T12:54:07.751Z,98372.96
2022-12-02T12:56:34.322Z,98376.46
2022-12-02T12:59:01.176Z,98377.18
2022-12-02T13:01:27.853Z,98378.61
2022-12-02T13:03:54.737Z,98380.63
2022-12-02T13:06:21.479Z,98380.31
2022-12-02T13:08:48.109Z,98377.63
2022-12-02T13:11:14.607Z,98374.73
2022-12-02T13:13:41.096Z,98376.62
2022-12-02T13:16:07.772Z,98381.42
2022-12-02T13:18:34.567Z,98382.01
2022-12-02T13:21:01.051Z,98386.74
2022-12-02T13:23:27.624Z,98385.39
2022-12-02T13:25:54.449Z,98389.89
2022-12-02T13:28:20.941Z,98394.11
2022-12-02T13:30:47.750Z,98395.42
2022-12-02T13:33:14.582Z,98393.80
2022-12-02T13:35:41.320Z,98398.90
2022-12-02T13:38:07.934Z,98403.06
2022-12-02T13:40:34.798Z,98401.28
2022-12-02T13:43:01.280Z,98400.84
2022-12-02T13:45:29.814Z,98404.15
2022-12-02T13:47:56.556Z,98404.88
2022-12-02T13:50:23.296Z,98404.70
2022-12-02T13:52:50.624Z,98404.73
2022-12-02T13:55:18.210Z,98406.48
2022-12-02T13:57:45.770Z,98408.80
2022-12-02T14:00:12.707Z,98412.01
2022-12-02T14:02:42.075Z,98419.30
2022-12-02T14:05:09.190Z,98418.70
2022-12-02T14:07:36.471Z,98415.30
2022-12-02T14:10:03.860Z,98418.08
2022-12-02T14:12:30.397Z,98421.81
2022-12-02T14:14:57.913Z,98424.63
2022-12-02T14:17:24.591Z,98425.32
2022-12-02T14:19:51.569Z,98421.11
2022-12-02T14:22:18.580Z,98423.95
2022-12-02T14:24:48.826Z,98423.01
2022-12-02T14:27:16.162Z,98419.68
2022-12-02T14:29:43.000Z,98423.42
2022-12-02T14:32:10.865Z,98419.55
2022-12-02T14:34:37.560Z,98421.09
2022-12-02T14:37:07.482Z,98417.65
2022-12-02T14:39:37.842Z,98413.41
2022-12-02T14:42:04.465Z,98415.77
2022-12-02T14:44:31.570Z,98416.93
2022-12-02T14:46:58.204Z,98418.09
2022-12-02T14:49:41.470Z,98420.61
2022-12-02T14:52:08.396Z,98426.09
2022-12-02T14:54:35.071Z,98425.46
2022-12-02T14:57:01.811Z,98425.59
2022-12-02T14:59:28.377Z,98427.16
2022-12-02T15:01:55.763Z,98426.81
2022-12-02T15:04:22.960Z,98425.11
2022-12-02T15:06:49.506Z,98428.61
2022-12-02T15:09:16.337Z,98429.59
2022-12-02T15:11:42.865Z,98435.70
2022-12-02T15:14:09.494Z,98436.02
2022-12-02T15:16:36.019Z,98437.98
2022-12-02T15:19:03.074Z,98439.48
2022-12-02T15:21:29.705Z,98443.80
2022-12-02T15:23:56.644Z,98441.74
2022-12-02T15:26:23.249Z,98446.13
2022-12-02T15:28:50.049Z,98446.77
2022-12-02T15:31:18.129Z,98447.83
2022-12-02T15:33:45.487Z,98452.20
2022-12-02T15:36:12.911Z,98448.49
2022-12-02T15:38:39.449Z,98449.80
2022-12-02T15:41:07.653Z,98445.80
2022-12-02T15:43:34.259Z,98445.45
2022-12-02T15:46:00.938Z,98441.90
2022-12-02T15:48:27.632Z,98442.25
2022-12-02T15:50:55.635Z,98440.73
2022-12-02T15:53:23.266Z,98441.21
2022-12-02T15:55:50.306Z,98440.25
2022-12-02T15:58:17.769Z,98442.61
2022-12-02T16:00:44.420Z,98439.14
2022-12-02T16:03:11.026Z,98441.46
2022-12-02T16:05:37.571Z,98439.63
2022-12-02T16:08:04.471Z,98440.48
2022-12-02T16:10:31.104Z,98440.98
2022-12-02T16:12:57.790Z,98436.98
2022-12-02T16:15:24.291Z,98436.28
2022-12-02T16:17:50.865Z,98438.90
2022-12-02T16:20:17.614Z,98443.67
2022-12-02T16:22:44.240Z,98443.34
2022-12-02T16:25:10.778Z,98448.36
2022-12-02T16:27:37.479Z,98447.09
2022-12-02T16:30:04.553Z,98452.13
2022-12-02T16:32:31.394Z,98453.57
2022-12-02T16:34:58.139Z,98454.29
2022-12-02T16:37:25.068Z,98455.70
2022-12-02T16:39:51.771Z,98457.03
2022-12-02T16:42:18.282Z,98460.47
2022-12-02T16:44:46.123Z,98461.05
2022-12-02T16:47:14.086Z,98460.94
2022-12-02T16:49:40.657Z,98462.11
2022-12-02T16:52:07.468Z,98465.80
2022-12-02T16:54:34.312Z,98462.92
2022-12-02T16:57:01.170Z,98469.10
2022-12-02T16:59:27.906Z,98470.58
2022-12-02T17:01:54.623Z,98468.05
2022-12-02T17:04:21.591Z,98470.35
2022-12-02T17:06:48.116Z,98470.64
2022-12-02T17:09:14.615Z,98472.42
2022-12-02T17:11:41.221Z,98472.48
2022-12-02T17:14:08.184Z,98472.72
2022-12-02T17:16:34.857Z,98471.31
2022-12-02T17:19:02.015Z,98473.11
2022-12-02T17:21:28.571Z,98478.81
2022-12-02T17:23:55.376Z,98478.95
2022-12-02T17:26:22.126Z,98481.94
2022-12-02T17:28:48.615Z,98481.09
2022-12-02T17:31:15.357Z,98483.66
2022-12-02T17:33:42.433Z,98482.95
2022-12-02T17:36:09.379Z,98486.40
2022-12-02T17:38:55.577Z,98483.50
2022-12-02T17:41:23.850Z,98487.21
2022-12-02T17:43:50.796Z,98492.59
2022-12-02T17:46:17.538Z,98495.05
2022-12-02T17:48:44.885Z,98500.33
2022-12-02T17:51:12.600Z,98504.48
2022-12-02T17:53:39.698Z,98504.47
2022-12-02T17:56:07.121Z,98506.34
2022-12-02T17:58:36.757Z,98506.95
2022-12-02T18:01:09.574Z,98505.50
2022-12-02T18:03:39.025Z,98505.33
2022-12-02T18:06:06.230Z,98507.20
2022-12-02T18:08:33.765Z,98505.53
2022-12-02T18:11:00.853Z,98506.33
2022-12-02T18:13:27.748Z,98505.61
2022-12-02T18:15:54.296Z,98506.71
2022-12-02T18:18:20.811Z,98503.91
2022-12-02T18:20:47.860Z,98505.99
2022-12-02T18:23:14.412Z,98507.98
2022-12-02T18:25:41.134Z,98508.35
2022-12-02T18:28:08.286Z,98513.00
2022-12-02T18:30:35.186Z,98513.85
2022-12-02T18:33:02.073Z,98513.17
2022-12-02T18:35:28.608Z,98515.56
2022-12-02T18:37:55.342Z,98518.10
2022-12-02T18:40:22.139Z,98521.25
2022-12-02T18:42:49.233Z,98522.70
2022-12-02T18:45:15.790Z,98524.30
2022-12-02T18:47:42.303Z,98525.46
2022-12-02T18:50:09.653Z,98522.75
2022-12-02T18:52:36.331Z,98526.27
2022-12-02T18:55:03.746Z,98524.30
2022-12-02T18:57:30.277Z,98517.87
2022-12-02T18:59:57.731Z,98521.69
2022-12-02T19:02:24.293Z,98525.10
2022-12-02T19:04:51.945Z,98526.80
2022-12-02T19:07:19.406Z,98528.36
2022-12-02T19:09:51.566Z,98531.19
2022-12-02T19:12:20.542Z,98537.98
2022-12-02T19:14:47.075Z,98535.12
2022-12-02T19:17:13.734Z,98533.57
2022-12-02T19:19:40.415Z,98534.46
2022-12-02T19:22:08.283Z,98536.59
2022-12-02T19:24:35.335Z,98538.10
2022-12-02T19:27:01.901Z,98539.88
2022-12-02T19:29:28.538Z,98539.50
2022-12-02T19:31:55.143Z,98539.21
2022-12-02T19:34:21.705Z,98540.95
2022-12-02T19:36:48.348Z,98544.20
2022-12-02T19:39:15.296Z,98550.34
2022-12-02T19:41:42.266Z,98551.86
2022-12-02T19:44:09.072Z,98549.27
2022-12-02T19:46:36.036Z,98553.70
2022-12-02T19:49:02.865Z,98552.96
2022-12-02T19:51:29.736Z,98546.45
2022-12-02T19:53:57.707Z,98545.27
2022-12-02T19:56:24.574Z,98549.36
2022-12-02T19:58:51.123Z,98546.70
2022-12-02T20:01:17.637Z,98545.16
2022-12-02T20:03:44.217Z,98547.88
2022-12-02T20:06:10.695Z,98556.45
2022-12-02T20:08:37.358Z,98553.48
2022-12-02T20:11:04.024Z,98554.03
2022-12-02T20:13:30.764Z,98552.30
2022-12-02T20:15:58.850Z,98551.74
2022-12-02T20:18:25.721Z,98554.23
2022-12-02T20:20:52.512Z,98555.35
2022-12-02T20:23:19.009Z,98558.14
2022-12-02T20:25:45.580Z,98559.90
2022-12-02T20:28:12.053Z,98558.43
2022-12-02T20:30:38.534Z,98560.48
2022-12-02T20:33:05.083Z,98564.23
2022-12-02T20:35:32.538Z,98562.67
2022-12-02T20:38:01.081Z,98565.98
2022-12-02T20:40:27.976Z,98565.36
2022-12-02T20:42:54.700Z,98565.48
2022-12-02T20:45:22.508Z,98564.09
2022-12-02T20:47:49.408Z,98563.49
2022-12-02T20:50:16.301Z,98565.00
2022-12-02T20:52:45.893Z,98567.08
2022-12-02T20:55:16.384Z,98563.57
2022-12-02T20:57:42.918Z,98563.56
2022-12-02T21:00:10.427Z,98564.44
2022-12-02T21:02:37.207Z,98565.77
2022-12-02T21:05:04.160Z,98573.91
2022-12-02T21:07:31.314Z,98570.94
2022-12-02T21:09:58.036Z,98570.71
2022-12-02T21:12:24.511Z,98572.03
2022-12-02T21:14:51.574Z,98574.45
2022-12-02T21:17:18.324Z,98573.65
2022-12-02T21:19:44.922Z,98572.66
2022-12-02T21:22:11.746Z,98571.05
2022-12-02T21:24:38.304Z,98574.16
2022-12-02T21:27:05.027Z,98573.34
2022-12-02T21:29:31.520Z,98576.39
2022-12-02T21:31:58.222Z,98577.26
2022-12-02T21:34:24.943Z,98575.92
2022-12-02T21:36:51.465Z,98579.42
2022-12-02T21:39:18.133Z,98584.02
2022-12-02T21:41:44.610Z,98587.11
2022-12-02T21:44:11.079Z,98583.98
2022-12-02T21:46:37.612Z,98585.23
2022-12-02T21:49:04.335Z,98577.91
2022-12-02T21:51:30.930Z,98578.70
2022-12-02T21:53:57.473Z,98579.52
2022-12-02T21:56:24.147Z,98583.63
2022-12-02T21:58:50.784Z,98583.20
2022-12-02T22:01:36.644Z,98586.35
2022-12-02T22:04:04.385Z,98591.84
2022-12-02T22:06:30.972Z,98596.42
2022-12-02T22:08:57.609Z,98597.80
2022-12-02T22:11:24.122Z,98599.45
2022-12-02T22:13:50.957Z,98595.48
2022-12-02T22:16:17.505Z,98595.85
2022-12-02T22:18:44.039Z,98598.30
2022-12-02T22:21:10.550Z,98596.85
2022-12-02T22:23:37.223Z,98595.33
2022-12-02T22:26:03.860Z,98597.89
2022-12-02T22:28:30.338Z,98595.74
2022-12-02T22:30:56.998Z,98594.67
2022-12-02T22:33:26.406Z,98590.68
2022-12-02T22:35:55.237Z,98591.89
2022-12-02T22:38:21.918Z,98588.50
2022-12-02T22:40:48.445Z,98587.88
2022-12-02T22:43:15.236Z,98585.27
2022-12-02T22:45:42.059Z,98585.67
2022-12-02T22:48:08.646Z,98583.88
2022-12-02T22:50:35.347Z,98588.77
2022-12-02T22:53:01.914Z,98591.10
2022-12-02T22:55:28.509Z,98589.71
2022-12-02T22:57:55.106Z,98589.63
2022-12-02T23:00:22.104Z,98590.85
2022-12-02T23:02:48.606Z,98589.38
2022-12-02T23:05:15.149Z,98592.33
2022-12-02T23:07:41.621Z,98597.85
2022-12-02T23:10:08.751Z,98597.67
2022-12-02T23:12:35.487Z,98596.05
2022-12-02T23:15:28.228Z,98587.32
2022-12-02T23:17:48.524Z,98591.45
2022-12-02T23:20:15.185Z,98590.98
2022-12-02T23:22:41.798Z,98593.98
2022-12-02T23:25:08.798Z,98600.04
2022-12-02T23:27:35.342Z,98598.05
2022-12-02T23:30:02.432Z,98600.36
2022-12-02T23:32:28.930Z,98604.80
2022-12-02T23:34:55.620Z,98602.80
2022-12-02T23:37:22.321Z,98603.49
2022-12-02T23:39:49.083Z,98605.77
2022-12-02T23:42:15.588Z,98608.70
2022-12-02T23:44:42.099Z,98611.27
2022-12-02T23:47:08.689Z,98618.86
2022-12-02T23:49:35.238Z,98620.11
2022-12-02T23:52:01.747Z,98617.40
2022-12-02T23:54:28.441Z,98615.96
2022-12-02T23:56:55.010Z,98615.76
2022-12-02T23:59:21.895Z,98613.71
